createdAt,value
2022-09-06T00:00:10.257Z,1.00
2022-09-06T00:02:42.499Z,1.00
2022-09-06T00:05:12.737Z,1.00
2022-09-06T00:07:42.020Z,1.00
2022-09-06T00:10:12.204Z,1.00
2022-09-06T00:12:40.442Z,1.00
2022-09-06T00:15:09.709Z,1.00
2022-09-06T00:17:38.159Z,1.00
2022-09-06T00:20:09.127Z,1.00
2022-09-06T00:22:37.642Z,1.00
2022-09-06T00:25:07.043Z,1.00
2022-09-06T00:27:36.854Z,1.00
2022-09-06T00:30:06.426Z,1.00
2022-09-06T00:32:34.727Z,1.00
2022-09-06T00:35:02.946Z,1.00
2022-09-06T00:37:31.676Z,1.00
2022-09-06T00:40:00.233Z,1.00
2022-09-06T00:42:28.533Z,1.00
2022-09-06T00:44:58.394Z,1.00
2022-09-06T00:47:27.729Z,1.00
2022-09-06T00:49:58.614Z,1.00
2022-09-06T00:52:28.686Z,1.00
2022-09-06T00:54:57.505Z,1.00
2022-09-06T00:57:27.233Z,1.00
2022-09-06T00:59:57.024Z,1.00
2022-09-06T01:02:27.098Z,1.00
2022-09-06T01:04:55.846Z,1.00
2022-09-06T01:07:36.472Z,1.00
2022-09-06T01:10:33.459Z,1.00
2022-09-06T01:13:10.577Z,1.00
2022-09-06T01:15:50.058Z,1.00
2022-09-06T01:18:31.252Z,1.00
2022-09-06T01:21:19.923Z,1.00
2022-09-06T01:24:14.665Z,1.00
2022-09-06T01:27:10.826Z,1.00
2022-09-06T01:29:48.478Z,1.00
2022-09-06T01:32:27.539Z,1.00
2022-09-06T01:35:03.903Z,1.00
2022-09-06T01:37:32.429Z,1.00
2022-09-06T01:40:00.805Z,1.00
2022-09-06T01:42:31.921Z,1.00
2022-09-06T01:45:03.667Z,1.00
2022-09-06T01:47:40.897Z,1.00
2022-09-06T01:50:36.821Z,1.00
2022-09-06T01:53:16.833Z,1.00
2022-09-06T01:55:52.461Z,1.00
2022-09-06T01:58:40.177Z,1.00
2022-09-06T02:01:21.606Z,1.00
2022-09-06T02:03:56.689Z,1.00
2022-09-06T02:06:29.549Z,1.00
2022-09-06T02:09:05.180Z,1.00
2022-09-06T02:11:40.751Z,1.00
2022-09-06T02:14:12.959Z,1.00
2022-09-06T02:16:47.054Z,1.00
2022-09-06T02:19:21.015Z,1.00
2022-09-06T02:21:50.648Z,1.00
2022-09-06T02:24:21.889Z,1.00
2022-09-06T02:26:51.468Z,1.00
2022-09-06T02:29:20.275Z,1.00
2022-09-06T02:31:53.964Z,1.00
2022-09-06T02:34:22.657Z,1.00
2022-09-06T02:36:51.449Z,1.00
2022-09-06T02:39:19.838Z,1.00
2022-09-06T02:41:49.191Z,1.00
2022-09-06T02:44:17.412Z,1.00
2022-09-06T02:46:45.586Z,1.00
2022-09-06T02:49:15.223Z,1.00
2022-09-06T02:51:43.526Z,1.00
2022-09-06T02:54:11.977Z,1.00
2022-09-06T02:56:40.190Z,1.00
2022-09-06T02:59:08.607Z,1.00
2022-09-06T03:01:36.848Z,1.00
2022-09-06T03:04:05.777Z,1.00
2022-09-06T03:06:35.935Z,1.00
2022-09-06T03:09:04.671Z,1.00
2022-09-06T03:11:32.894Z,1.00
2022-09-06T03:14:01.100Z,1.00
2022-09-06T03:16:29.691Z,2.10
2022-09-06T03:18:57.849Z,14.20
2022-09-06T03:21:26.155Z,13.60
2022-09-06T03:23:55.947Z,14.10
2022-09-06T03:26:24.130Z,11.80
2022-09-06T03:28:52.437Z,16.20
2022-09-06T03:31:20.718Z,20.30
2022-09-06T03:33:48.907Z,27.30
2022-09-06T03:36:17.442Z,39.60
2022-09-06T03:38:45.848Z,53.20
2022-09-06T03:41:15.777Z,54.50
2022-09-06T03:43:44.028Z,50.00
2022-09-06T03:46:12.245Z,42.90
2022-09-06T03:48:40.848Z,41.00
2022-09-06T03:51:09.079Z,35.40
2022-09-06T03:53:37.251Z,33.20
2022-09-06T03:56:06.013Z,32.40
2022-09-06T03:58:35.587Z,32.80
2022-09-06T04:01:06.785Z,34.80
2022-09-06T04:03:35.825Z,37.50
2022-09-06T04:06:05.568Z,35.90
2022-09-06T04:08:34.599Z,38.60
2022-09-06T04:11:02.852Z,40.10
2022-09-06T04:13:32.003Z,42.90
2022-09-06T04:16:02.040Z,44.20
2022-09-06T04:18:30.569Z,45.00
2022-09-06T04:20:59.394Z,46.40
2022-09-06T04:23:29.271Z,49.50
2022-09-06T04:25:59.457Z,52.50
2022-09-06T04:28:28.543Z,53.80
2022-09-06T04:31:03.299Z,55.60
2022-09-06T04:33:37.120Z,58.90
2022-09-06T04:36:08.032Z,63.30
2022-09-06T04:38:38.262Z,69.20
2022-09-06T04:41:07.787Z,71.90
2022-09-06T04:43:36.171Z,74.00
2022-09-06T04:46:07.650Z,75.20
2022-09-06T04:48:37.220Z,76.30
2022-09-06T04:51:05.805Z,81.80
2022-09-06T04:53:34.264Z,82.10
2022-09-06T04:56:02.693Z,80.00
2022-09-06T04:58:30.961Z,76.80
2022-09-06T05:00:59.439Z,77.70
2022-09-06T05:03:27.747Z,78.50
2022-09-06T05:06:07.252Z,86.10
2022-09-06T05:08:38.105Z,83.60
2022-09-06T05:11:07.458Z,80.30
2022-09-06T05:13:36.274Z,80.60
2022-09-06T05:16:06.613Z,80.30
2022-09-06T05:18:35.643Z,81.40
2022-09-06T05:21:04.050Z,84.90
2022-09-06T05:23:33.697Z,85.90
2022-09-06T05:26:01.995Z,90.10
2022-09-06T05:28:30.935Z,88.80
2022-09-06T05:31:07.673Z,91.00
2022-09-06T05:33:36.039Z,90.70
2022-09-06T05:36:04.915Z,90.20
2022-09-06T05:38:34.516Z,91.40
2022-09-06T05:41:02.710Z,90.40
2022-09-06T05:43:31.031Z,85.60
2022-09-06T05:45:59.352Z,80.20
2022-09-06T05:48:27.853Z,68.00
2022-09-06T05:51:02.935Z,65.10
2022-09-06T05:53:36.765Z,64.70
2022-09-06T05:56:06.058Z,75.70
2022-09-06T05:58:34.977Z,77.70
2022-09-06T06:01:08.253Z,76.20
2022-09-06T06:03:37.012Z,85.80
2022-09-06T06:06:05.525Z,90.80
2022-09-06T06:08:33.933Z,95.30
2022-09-06T06:11:04.227Z,99.90
2022-09-06T06:13:35.019Z,99.90
2022-09-06T06:16:04.351Z,99.90
2022-09-06T06:18:32.865Z,99.90
2022-09-06T06:21:15.383Z,99.90
2022-09-06T06:23:45.388Z,99.90
2022-09-06T06:26:15.136Z,99.90
2022-09-06T06:28:43.783Z,99.40
2022-09-06T06:31:13.152Z,96.00
2022-09-06T06:33:41.636Z,91.50
2022-09-06T06:36:21.762Z,90.00
2022-09-06T06:38:51.238Z,88.80
2022-09-06T06:41:23.975Z,82.10
2022-09-06T06:43:55.708Z,67.70
2022-09-06T06:46:26.258Z,55.50
2022-09-06T06:48:55.629Z,58.40
2022-09-06T06:51:25.572Z,47.70
2022-09-06T06:53:54.140Z,37.80
2022-09-06T06:56:26.150Z,34.90
2022-09-06T06:58:55.771Z,38.20
2022-09-06T07:01:26.321Z,32.60
2022-09-06T07:03:55.558Z,25.00
2022-09-06T07:09:13.758Z,37.60
2022-09-06T07:11:43.608Z,35.80
2022-09-06T07:14:12.374Z,24.20
2022-09-06T07:16:40.815Z,21.10
2022-09-06T07:22:02.783Z,21.40
2022-09-06T07:24:33.527Z,22.60
2022-09-06T07:29:52.497Z,27.40
2022-09-06T07:32:21.024Z,22.50
2022-09-06T07:34:49.404Z,15.80
2022-09-06T07:37:17.766Z,8.80
2022-09-06T07:39:46.382Z,30.00
2022-09-06T07:42:16.751Z,10.60
2022-09-06T07:44:45.143Z,11.50
2022-09-06T07:53:11.079Z,15.40
2022-09-06T07:55:41.465Z,5.10
2022-09-06T07:58:12.059Z,1.00
2022-09-06T08:00:41.201Z,1.00
2022-09-06T08:03:10.369Z,1.00
2022-09-06T08:11:16.257Z,1.00
2022-09-06T08:13:46.055Z,1.00
2022-09-06T08:16:15.660Z,1.70
2022-09-06T08:18:44.627Z,6.50
2022-09-06T08:21:15.105Z,10.20
2022-09-06T08:23:47.690Z,6.20
2022-09-06T08:26:16.747Z,1.90
2022-09-06T08:28:46.592Z,1.00
2022-09-06T08:31:16.355Z,1.00
2022-09-06T08:33:45.602Z,1.00
2022-09-06T08:36:14.242Z,1.00
2022-09-06T08:38:42.597Z,1.00
2022-09-06T08:41:13.169Z,1.00
2022-09-06T08:46:43.714Z,1.00
2022-09-06T08:49:13.149Z,1.00
2022-09-06T08:52:13.787Z,1.00
2022-09-06T08:54:49.705Z,1.00
2022-09-06T08:57:31.829Z,1.00
2022-09-06T09:00:10.452Z,1.00
2022-09-06T09:02:45.273Z,1.00
2022-09-06T09:05:23.993Z,1.00
2022-09-06T09:08:01.775Z,1.00
2022-09-06T09:10:32.630Z,1.00
2022-09-06T09:13:04.821Z,1.00
2022-09-06T09:15:40.232Z,1.00
2022-09-06T09:18:09.786Z,1.00
2022-09-06T09:20:39.317Z,1.00
2022-09-06T09:23:07.965Z,1.00
2022-09-06T09:25:40.573Z,1.00
2022-09-06T09:28:16.408Z,1.00
2022-09-06T09:30:51.578Z,1.00
2022-09-06T09:33:29.757Z,1.00
2022-09-06T09:36:00.813Z,1.00
2022-09-06T09:38:32.011Z,1.00
2022-09-06T09:41:04.031Z,1.00
2022-09-06T09:43:34.216Z,1.00
2022-09-06T09:46:18.255Z,1.00
2022-09-06T09:49:02.093Z,1.00
2022-09-06T09:51:31.859Z,1.00
2022-09-06T09:54:02.158Z,1.00
2022-09-06T09:56:36.618Z,1.00
2022-09-06T09:59:16.714Z,1.00
2022-09-06T10:01:46.388Z,1.00
2022-09-06T10:07:12.790Z,1.00
2022-09-06T10:09:46.992Z,1.00
2022-09-06T10:12:18.964Z,1.00
2022-09-06T10:14:49.070Z,1.00
2022-09-06T10:17:30.757Z,1.00
2022-09-06T10:20:03.240Z,1.00
2022-09-06T10:22:33.702Z,1.00
2022-09-06T10:25:32.099Z,1.00
2022-09-06T10:28:36.503Z,1.00
2022-09-06T10:31:26.516Z,1.00
2022-09-06T10:34:04.666Z,1.00
2022-09-06T10:36:37.033Z,1.00
2022-09-06T10:39:14.842Z,1.00
2022-09-06T10:41:59.434Z,1.00
2022-09-06T10:44:45.847Z,1.00
2022-09-06T10:47:16.122Z,1.00
2022-09-06T10:49:49.731Z,1.00
2022-09-06T10:52:26.150Z,1.00
2022-09-06T10:54:57.326Z,1.00
2022-09-06T11:00:19.812Z,1.00
2022-09-06T11:05:48.726Z,1.00
2022-09-06T11:11:19.838Z,99.90
2022-09-06T11:13:48.365Z,99.90
2022-09-06T11:16:23.020Z,99.90
2022-09-06T11:18:56.074Z,99.90
2022-09-06T11:22:07.763Z,99.90
2022-09-06T11:24:54.897Z,99.90
2022-09-06T11:27:34.964Z,95.40
2022-09-06T11:30:06.810Z,81.70
2022-09-06T11:32:40.509Z,98.60
2022-09-06T11:35:11.498Z,75.80
2022-09-06T11:37:44.983Z,11.00
2022-09-06T11:43:38.699Z,99.90
2022-09-06T11:46:07.063Z,99.90
2022-09-06T11:48:51.360Z,99.90
2022-09-06T11:51:38.155Z,99.90
2022-09-06T11:54:24.898Z,99.90
2022-09-06T11:56:58.579Z,99.90
2022-09-06T11:59:37.244Z,99.90
2022-09-06T12:02:09.179Z,99.90
2022-09-06T12:05:14.337Z,13.20
2022-09-06T12:08:14.285Z,1.00
2022-09-06T12:10:51.446Z,1.00
2022-09-06T12:13:42.579Z,1.00
2022-09-06T12:16:12.767Z,1.00
2022-09-06T12:19:00.392Z,1.00
2022-09-06T12:21:52.250Z,1.00
2022-09-06T12:24:52.460Z,1.00
2022-09-06T12:27:23.454Z,1.00
2022-09-06T12:29:56.172Z,1.00
2022-09-06T12:32:28.455Z,1.00
2022-09-06T12:37:51.954Z,1.00
2022-09-06T12:40:21.658Z,33.40
2022-09-06T12:42:52.259Z,25.20
2022-09-06T12:45:27.042Z,16.30
2022-09-06T12:48:06.069Z,1.00
2022-09-06T12:50:34.328Z,1.00
2022-09-06T12:53:04.745Z,1.00
2022-09-06T12:55:35.534Z,1.00
2022-09-06T12:58:07.588Z,1.00
2022-09-06T13:00:38.428Z,1.00
2022-09-06T13:03:15.062Z,1.00
2022-09-06T13:05:45.170Z,1.00
2022-09-06T13:08:18.163Z,1.00
2022-09-06T13:10:48.389Z,1.00
2022-09-06T13:13:23.689Z,1.00
2022-09-06T13:15:54.376Z,99.90
2022-09-06T13:18:27.738Z,1.00
2022-09-06T13:24:28.400Z,99.90
2022-09-06T13:26:56.592Z,99.90
2022-09-06T13:29:31.268Z,99.90
2022-09-06T13:32:02.057Z,99.90
2022-09-06T13:34:32.490Z,99.90
2022-09-06T13:37:03.171Z,99.90
2022-09-06T13:39:33.552Z,99.90
2022-09-06T13:42:04.172Z,99.90
2022-09-06T13:44:35.608Z,99.90
2022-09-06T13:50:57.312Z,99.90
2022-09-06T13:53:25.534Z,99.90
2022-09-06T13:55:53.797Z,99.90
2022-09-06T13:58:22.048Z,99.90
2022-09-06T14:00:51.955Z,99.90
2022-09-06T14:03:25.109Z,99.90
2022-09-06T14:05:56.533Z,99.90
2022-09-06T14:08:25.234Z,99.90
2022-09-06T14:10:54.088Z,99.90
2022-09-06T14:13:22.390Z,99.90
2022-09-06T14:15:52.380Z,99.90
2022-09-06T14:18:20.800Z,99.90
2022-09-06T14:20:54.103Z,99.90
2022-09-06T14:23:23.310Z,99.90
2022-09-06T14:25:56.033Z,99.90
2022-09-06T14:28:24.832Z,99.90
2022-09-06T14:30:55.430Z,99.90
2022-09-06T14:33:23.930Z,98.80
2022-09-06T14:35:52.350Z,99.90
2022-09-06T14:38:20.807Z,99.90
2022-09-06T14:40:49.165Z,99.90
2022-09-06T14:43:17.421Z,99.90
2022-09-06T14:45:46.005Z,93.00
2022-09-06T14:48:15.827Z,99.90
2022-09-06T14:50:44.102Z,99.90
2022-09-06T14:53:36.694Z,99.90
2022-09-06T14:56:06.769Z,99.90
2022-09-06T14:58:37.470Z,99.90
2022-09-06T15:01:11.813Z,99.90
2022-09-06T15:03:42.872Z,99.90
2022-09-06T15:06:12.215Z,99.90
2022-09-06T15:08:40.969Z,99.90
2022-09-06T15:11:11.098Z,99.90
2022-09-06T15:13:41.343Z,99.90
2022-09-06T15:16:11.072Z,99.90
2022-09-06T15:18:41.202Z,99.90
2022-09-06T15:21:11.166Z,99.90
2022-09-06T15:23:39.818Z,99.90
2022-09-06T15:26:09.545Z,99.90
2022-09-06T15:28:38.087Z,99.90
2022-09-06T15:31:06.450Z,99.90
2022-09-06T15:33:36.663Z,99.90
2022-09-06T15:36:14.041Z,99.90
2022-09-06T15:38:45.750Z,99.90
2022-09-06T15:41:16.328Z,99.90
2022-09-06T15:43:48.230Z,99.90
2022-09-06T15:46:18.751Z,99.90
2022-09-06T15:48:49.274Z,99.90
2022-09-06T15:51:21.524Z,99.90
2022-09-06T15:53:50.289Z,99.90
2022-09-06T15:56:20.080Z,99.90
2022-09-06T15:58:49.074Z,99.90
2022-09-06T16:01:21.758Z,1.00
2022-09-06T16:03:55.211Z,1.00
2022-09-06T16:06:28.389Z,1.00
2022-09-06T16:08:59.663Z,1.00
2022-09-06T16:11:29.032Z,1.00
2022-09-06T16:13:57.529Z,1.00
2022-09-06T16:16:26.146Z,29.40
2022-09-06T16:18:54.487Z,65.30
2022-09-06T16:21:26.423Z,91.40
2022-09-06T16:23:56.312Z,99.90
2022-09-06T16:26:26.763Z,99.90
2022-09-06T16:28:55.358Z,99.90
2022-09-06T16:31:24.029Z,99.90
2022-09-06T16:33:53.726Z,99.90
2022-09-06T16:36:23.297Z,99.90
2022-09-06T16:38:53.632Z,99.90
2022-09-06T16:41:25.178Z,99.90
2022-09-06T16:43:53.960Z,99.90
2022-09-06T16:46:24.605Z,99.90
2022-09-06T16:48:53.657Z,99.90
2022-09-06T16:51:23.758Z,1.00
2022-09-06T16:53:54.297Z,1.00
2022-09-06T16:56:24.648Z,1.00
2022-09-06T16:58:55.744Z,1.00
2022-09-06T17:01:25.038Z,1.00
2022-09-06T17:03:54.200Z,1.00
2022-09-06T17:06:24.061Z,1.00
2022-09-06T17:08:58.375Z,1.00
2022-09-06T17:11:28.814Z,1.00
2022-09-06T17:13:58.123Z,1.00
2022-09-06T17:16:44.771Z,1.00
2022-09-06T17:19:13.892Z,1.00
2022-09-06T17:21:42.750Z,1.00
2022-09-06T17:24:12.631Z,1.00
2022-09-06T17:26:41.529Z,1.00
2022-09-06T17:29:10.408Z,1.00
2022-09-06T17:31:38.973Z,1.00
2022-09-06T17:34:07.999Z,1.00
2022-09-06T17:36:36.808Z,1.00
2022-09-06T17:39:07.631Z,1.00
2022-09-06T17:41:39.191Z,1.00
2022-09-06T17:44:10.428Z,1.00
2022-09-06T17:46:47.682Z,1.00
2022-09-06T17:49:20.666Z,1.00
2022-09-06T17:51:49.431Z,1.00
2022-09-06T17:54:18.084Z,1.00
2022-09-06T17:56:47.734Z,1.00
2022-09-06T17:59:16.295Z,1.00
2022-09-06T18:01:45.852Z,1.00
2022-09-06T18:04:15.957Z,1.00
2022-09-06T18:06:47.199Z,1.00
2022-09-06T18:09:18.124Z,1.00
2022-09-06T18:11:48.082Z,1.00
2022-09-06T18:14:20.670Z,1.00
2022-09-06T18:16:52.433Z,1.00
2022-09-06T18:19:21.055Z,1.00
2022-09-06T18:21:49.622Z,1.00
2022-09-06T18:24:18.063Z,1.00
2022-09-06T18:26:47.965Z,1.00
2022-09-06T18:29:18.367Z,1.00
2022-09-06T18:31:47.124Z,1.00
2022-09-06T18:34:16.587Z,1.00
2022-09-06T18:36:45.148Z,1.00
2022-09-06T18:39:13.824Z,1.00
2022-09-06T18:42:00.746Z,1.00
2022-09-06T18:44:33.110Z,1.00
2022-09-06T18:47:02.499Z,1.00
2022-09-06T18:49:32.362Z,1.00
2022-09-06T18:52:01.465Z,1.00
2022-09-06T18:54:30.521Z,1.00
2022-09-06T18:56:59.186Z,1.00
2022-09-06T18:59:28.335Z,1.00
2022-09-06T19:01:58.280Z,1.00
2022-09-06T19:04:27.421Z,1.00
2022-09-06T19:06:56.249Z,1.00
2022-09-06T19:09:24.634Z,1.00
2022-09-06T19:11:53.523Z,1.00
2022-09-06T19:14:22.046Z,1.00
2022-09-06T19:16:53.731Z,1.00
2022-09-06T19:19:24.160Z,1.00
2022-09-06T19:21:53.116Z,1.00
2022-09-06T19:24:24.539Z,1.00
2022-09-06T19:26:53.452Z,1.00
2022-09-06T19:29:22.100Z,1.00
2022-09-06T19:31:50.652Z,1.00
2022-09-06T19:34:19.142Z,1.00
2022-09-06T19:36:49.990Z,1.00
2022-09-06T19:39:18.872Z,1.00
2022-09-06T19:41:47.718Z,1.00
2022-09-06T19:44:17.515Z,1.00
2022-09-06T19:46:47.025Z,1.00
2022-09-06T19:49:17.306Z,1.00
2022-09-06T19:51:46.494Z,1.00
2022-09-06T19:54:16.810Z,1.00
2022-09-06T19:56:46.100Z,1.00
2022-09-06T19:59:15.642Z,1.00
2022-09-06T20:01:46.343Z,1.00
2022-09-06T20:04:16.629Z,1.00
2022-09-06T20:06:45.232Z,1.00
2022-09-06T20:09:15.520Z,1.00
2022-09-06T20:11:46.349Z,1.00
2022-09-06T20:14:15.596Z,1.00
2022-09-06T20:16:44.060Z,1.00
2022-09-06T20:19:14.893Z,1.00
2022-09-06T20:21:44.020Z,1.00
2022-09-06T20:24:12.510Z,1.00
2022-09-06T20:26:41.571Z,1.00
2022-09-06T20:29:14.211Z,1.00
2022-09-06T20:31:42.766Z,1.00
2022-09-06T20:34:12.797Z,1.00
2022-09-06T20:36:42.148Z,1.00
2022-09-06T20:39:10.745Z,1.00
2022-09-06T20:41:39.634Z,1.00
2022-09-06T20:44:08.172Z,1.00
2022-09-06T20:46:39.679Z,1.00
2022-09-06T20:49:09.218Z,1.00
2022-09-06T20:51:40.293Z,1.00
2022-09-06T20:54:08.793Z,1.00
2022-09-06T20:56:39.435Z,1.00
2022-09-06T20:59:10.019Z,1.00
2022-09-06T21:01:43.419Z,1.00
2022-09-06T21:04:13.359Z,1.00
2022-09-06T21:06:42.040Z,1.00
2022-09-06T21:09:14.128Z,1.00
2022-09-06T21:11:43.162Z,1.00
2022-09-06T21:14:11.717Z,1.00
2022-09-06T21:16:41.731Z,1.00
2022-09-06T21:19:11.499Z,1.00
2022-09-06T21:21:40.700Z,1.00
2022-09-06T21:24:11.312Z,1.00
2022-09-06T21:26:40.822Z,1.00
2022-09-06T21:29:09.285Z,1.00
2022-09-06T21:31:38.600Z,1.00
2022-09-06T21:34:15.629Z,1.00
2022-09-06T21:36:45.496Z,1.00
2022-09-06T21:39:14.250Z,1.00
2022-09-06T21:41:44.021Z,1.00
2022-09-06T21:44:13.196Z,1.00
2022-09-06T21:46:42.017Z,1.00
2022-09-06T21:49:13.946Z,1.00
2022-09-06T21:51:42.989Z,1.00
2022-09-06T21:54:11.483Z,1.00
2022-09-06T21:56:40.470Z,1.00
2022-09-06T21:59:09.504Z,1.00
2022-09-06T22:01:39.494Z,1.00
2022-09-06T22:04:08.272Z,1.00
2022-09-06T22:06:38.046Z,1.00
2022-09-06T22:09:10.800Z,1.00
2022-09-06T22:11:40.880Z,1.00
2022-09-06T22:14:13.478Z,1.00
2022-09-06T22:16:42.885Z,1.00
2022-09-06T22:19:12.353Z,1.00
2022-09-06T22:21:42.167Z,1.00
2022-09-06T22:24:12.595Z,1.00
2022-09-06T22:26:42.371Z,1.00
2022-09-06T22:29:12.291Z,1.00
2022-09-06T22:31:41.097Z,1.00
2022-09-06T22:34:10.436Z,1.00
2022-09-06T22:36:39.096Z,10.70
2022-09-06T22:39:09.582Z,25.90
2022-09-06T22:41:38.311Z,34.10
2022-09-06T22:44:07.208Z,39.30
2022-09-06T22:46:36.950Z,42.00
2022-09-06T22:49:05.391Z,39.10
2022-09-06T22:51:34.177Z,42.40
2022-09-06T22:54:02.647Z,42.60
2022-09-06T22:56:33.539Z,45.00
2022-09-06T22:59:02.119Z,40.90
2022-09-06T23:01:32.582Z,38.80
2022-09-06T23:04:01.254Z,39.10
2022-09-06T23:06:29.627Z,33.30
2022-09-06T23:08:57.996Z,29.30
2022-09-06T23:11:27.771Z,28.10
2022-09-06T23:13:58.492Z,27.80
2022-09-06T23:16:28.157Z,24.00
2022-09-06T23:18:57.115Z,23.60
2022-09-06T23:21:27.142Z,24.20
2022-09-06T23:23:56.829Z,27.60
2022-09-06T23:26:28.560Z,28.60
2022-09-06T23:28:58.634Z,17.00
2022-09-06T23:31:29.198Z,19.90
2022-09-06T23:33:58.856Z,14.80
2022-09-06T23:36:27.791Z,15.30
2022-09-06T23:38:56.381Z,17.00
2022-09-06T23:41:25.482Z,18.00
2022-09-06T23:43:53.728Z,19.50
2022-09-06T23:46:23.540Z,22.30
2022-09-06T23:48:51.938Z,22.80
2022-09-06T23:51:20.294Z,23.90
2022-09-06T23:53:48.708Z,25.80
2022-09-06T23:56:17.038Z,27.60
2022-09-06T23:58:45.306Z,31.50
